Time;durP1;ratioP1;P1;durP2;ratioP2;P2;SDS_P1;SDS_P2;PMS_P1;PMS_P2;Temp;Humidity;BMP_temperature;BMP_pressure;BME280_temperature;BME280_humidity;BME280_pressure;Samples;Min_cycle;Max_cycle;Signal;HPM_P1;HPM_P2
2020/12/02 00:00:26;;;;;;;34.95;19.60;;;4.80;99.90;;;;;;5032909;28;20185;-77
2020/12/02 00:03:26;;;;;;;30.10;17.87;;;4.70;99.90;;;;;;5033055;28;20185;-77
2020/12/02 00:05:54;;;;;;;28.42;17.85;;;4.70;99.90;;;;;;5032372;28;20417;-77
2020/12/02 00:08:33;;;;;;;31.80;17.98;;;4.80;99.90;;;;;;5031594;28;20717;-77
2020/12/02 00:11:02;;;;;;;28.48;18.60;;;4.80;99.90;;;;;;5033024;28;20174;-76
2020/12/02 00:13:32;;;;;;;28.90;17.50;;;4.70;99.90;;;;;;5032781;28;20178;-77
2020/12/02 00:15:59;;;;;;;30.33;16.88;;;4.70;99.90;;;;;;5035068;28;20265;-77
2020/12/02 00:18:24;;;;;;;30.20;17.65;;;4.70;99.90;;;;;;5036684;28;20761;-77
2020/12/02 00:20:50;;;;;;;29.70;17.50;;;4.70;99.90;;;;;;5036591;28;20273;-77
2020/12/02 00:23:16;;;;;;;26.97;17.40;;;4.70;99.90;;;;;;5036657;28;20581;-77
2020/12/02 00:25:41;;;;;;;29.70;18.33;;;4.70;99.90;;;;;;5036244;28;20574;-77
2020/12/02 00:28:12;;;;;;;28.47;16.90;;;4.70;99.90;;;;;;5036540;28;20216;-77
2020/12/02 00:30:38;;;;;;;29.48;17.25;;;4.70;99.90;;;;;;5036562;28;20465;-76
2020/12/02 00:33:16;;;;;;;31.38;16.95;;;4.70;99.90;;;;;;5036476;28;20181;-76
2020/12/02 00:35:42;;;;;;;26.17;15.95;;;4.70;99.90;;;;;;5035975;28;20189;-77
2020/12/02 00:38:10;;;;;;;29.52;17.67;;;4.70;99.90;;;;;;5036235;28;20260;-76
2020/12/02 00:40:36;;;;;;;26.15;17.55;;;4.70;99.90;;;;;;5036351;28;20185;-76
2020/12/02 00:43:03;;;;;;;27.10;16.77;;;4.70;99.90;;;;;;5036625;28;20232;-77
2020/12/02 00:45:29;;;;;;;28.05;17.83;;;4.60;99.90;;;;;;5035887;28;20401;-76
2020/12/02 00:47:55;;;;;;;30.02;18.23;;;4.70;99.90;;;;;;5036208;28;20292;-76
2020/12/02 00:50:23;;;;;;;30.87;17.73;;;4.70;99.90;;;;;;5036356;28;20277;-77
2020/12/02 00:52:59;;;;;;;28.98;17.55;;;4.60;99.90;;;;;;5036322;28;20544;-77
2020/12/02 00:55:25;;;;;;;29.25;15.43;;;4.60;99.90;;;;;;5035965;28;20201;-77
2020/12/02 00:57:52;;;;;;;28.10;17.70;;;4.60;99.90;;;;;;5035864;28;20253;-76
2020/12/02 01:00:18;;;;;;;33.78;19.00;;;4.70;99.90;;;;;;5035971;28;20194;-77
2020/12/02 01:02:45;;;;;;;27.40;16.43;;;4.60;99.90;;;;;;5036031;28;20174;-77
2020/12/02 01:05:13;;;;;;;26.77;16.90;;;4.70;99.90;;;;;;5035670;28;20495;-77
2020/12/02 01:07:43;;;;;;;25.90;15.93;;;4.70;99.90;;;;;;5035823;28;20175;-77
2020/12/02 01:10:10;;;;;;;24.90;15.93;;;4.70;99.90;;;;;;5035537;28;20661;-77
2020/12/02 01:12:37;;;;;;;27.17;15.10;;;4.70;99.90;;;;;;5035892;28;20166;-77
2020/12/02 01:15:06;;;;;;;28.88;16.80;;;4.70;99.90;;;;;;5035565;28;20179;-76
2020/12/02 01:17:32;;;;;;;26.65;15.52;;;4.70;99.90;;;;;;5035564;28;20174;-77
2020/12/02 01:19:57;;;;;;;25.60;14.03;;;4.70;99.90;;;;;;5035390;28;20213;-77
2020/12/02 01:22:36;;;;;;;24.40;15.80;;;4.60;99.90;;;;;;5035460;28;20174;-76
2020/12/02 01:25:18;;;;;;;25.42;16.30;;;4.60;99.90;;;;;;5035425;28;20166;-76
2020/12/02 01:28:00;;;;;;;23.70;14.73;;;4.50;99.90;;;;;;5034855;28;20170;-76
2020/12/02 01:30:26;;;;;;;25.63;13.90;;;4.60;99.90;;;;;;5034041;28;20190;-77
2020/12/02 01:32:52;;;;;;;21.55;14.20;;;4.60;99.90;;;;;;5035385;28;20178;-77
2020/12/02 01:35:22;;;;;;;23.43;14.87;;;4.50;99.90;;;;;;5035079;28;20170;-75
2020/12/02 01:37:54;;;;;;;21.05;13.80;;;4.60;99.90;;;;;;5035359;28;20193;-77
2020/12/02 01:40:30;;;;;;;22.58;13.13;;;4.60;99.90;;;;;;5035368;28;20570;-77
2020/12/02 01:43:01;;;;;;;23.27;14.15;;;4.50;99.90;;;;;;5035403;28;20177;-76
2020/12/02 01:45:43;;;;;;;23.75;15.00;;;4.50;99.90;;;;;;5035069;28;20252;-76
2020/12/02 01:48:28;;;;;;;22.70;14.57;;;4.50;99.90;;;;;;5035172;28;20177;-76
2020/12/02 01:50:58;;;;;;;23.77;14.30;;;4.50;99.90;;;;;;5035216;28;20165;-76
2020/12/02 01:53:38;;;;;;;21.88;14.25;;;4.50;99.90;;;;;;5035186;28;20592;-76
2020/12/02 01:56:19;;;;;;;21.73;13.27;;;4.50;99.90;;;;;;5034769;28;20171;-76
2020/12/02 01:59:18;;;;;;;22.45;13.43;;;4.50;99.90;;;;;;5034759;28;20197;-77
2020/12/02 02:02:26;;;;;;;25.45;14.27;;;4.50;99.90;;;;;;5034951;28;20173;-77
2020/12/02 02:05:44;;;;;;;22.13;13.65;;;4.50;99.90;;;;;;5034038;28;20592;-76
2020/12/02 02:08:10;;;;;;;27.88;14.48;;;4.50;99.90;;;;;;5033951;28;20557;-77
2020/12/02 02:10:39;;;;;;;25.87;14.83;;;4.50;99.90;;;;;;5034540;28;20197;-76
2020/12/02 02:13:17;;;;;;;21.55;13.88;;;4.50;99.90;;;;;;5034664;28;20416;-76
2020/12/02 02:15:56;;;;;;;24.02;13.93;;;4.50;99.90;;;;;;5034272;28;20224;-77
2020/12/02 02:18:28;;;;;;;20.80;15.00;;;4.50;99.90;;;;;;5034485;28;20242;-76
2020/12/02 02:21:10;;;;;;;27.33;13.38;;;4.50;99.90;;;;;;5034409;28;20238;-76
2020/12/02 02:23:36;;;;;;;24.27;14.23;;;4.50;99.90;;;;;;5033182;28;20199;-76
2020/12/02 02:26:13;;;;;;;23.53;14.43;;;4.50;99.90;;;;;;5034072;28;20261;-77
2020/12/02 02:28:54;;;;;;;22.60;13.48;;;4.40;99.90;;;;;;5034138;28;20213;-77
2020/12/02 02:31:24;;;;;;;27.67;15.63;;;4.40;99.90;;;;;;5034343;28;20604;-77
2020/12/02 02:33:50;;;;;;;24.95;15.23;;;4.50;99.90;;;;;;5034429;28;20576;-76
2020/12/02 02:36:19;;;;;;;24.13;14.90;;;4.40;99.90;;;;;;5034135;28;20206;-77
2020/12/02 02:38:45;;;;;;;24.00;15.13;;;4.40;99.90;;;;;;5032775;28;20292;-76
2020/12/02 02:41:11;;;;;;;23.63;14.63;;;4.40;99.90;;;;;;5034181;28;20260;-76
2020/12/02 02:43:38;;;;;;;23.20;14.50;;;4.40;99.90;;;;;;5034115;28;20404;-77
2020/12/02 02:46:05;;;;;;;22.27;13.50;;;4.50;99.90;;;;;;5033773;28;20181;-76
2020/12/02 02:48:32;;;;;;;20.58;13.65;;;4.50;99.90;;;;;;5033879;28;20183;-76
2020/12/02 02:50:58;;;;;;;24.88;14.25;;;4.40;99.90;;;;;;5033760;28;20206;-76
2020/12/02 02:53:25;;;;;;;25.80;14.07;;;4.50;99.90;;;;;;5034233;28;20170;-77
2020/12/02 02:55:51;;;;;;;25.35;15.43;;;4.40;99.90;;;;;;5033635;28;20178;-76
2020/12/02 02:58:17;;;;;;;23.90;14.80;;;4.50;99.90;;;;;;5033742;28;20205;-77
2020/12/02 03:00:44;;;;;;;26.58;15.05;;;4.40;99.90;;;;;;5033718;28;20663;-76
2020/12/02 03:03:12;;;;;;;27.23;15.32;;;4.50;99.90;;;;;;5033649;28;20181;-77
2020/12/02 03:05:39;;;;;;;28.70;14.18;;;4.40;99.90;;;;;;5033357;28;20183;-76
2020/12/02 03:08:09;;;;;;;25.08;14.27;;;4.50;99.90;;;;;;5033586;28;20185;-75
2020/12/02 03:10:39;;;;;;;22.45;13.73;;;4.50;99.90;;;;;;5033468;28;20198;-77
2020/12/02 03:13:15;;;;;;;27.75;15.32;;;4.40;99.90;;;;;;5033378;28;20190;-77
2020/12/02 03:15:41;;;;;;;21.73;13.45;;;4.40;99.90;;;;;;5033213;28;20175;-77
2020/12/02 03:18:08;;;;;;;28.00;16.33;;;4.40;99.90;;;;;;5033438;28;20201;-77
2020/12/02 03:20:38;;;;;;;25.58;14.57;;;4.50;99.90;;;;;;5033344;28;20194;-77
2020/12/02 03:23:08;;;;;;;23.88;13.98;;;4.50;99.90;;;;;;5033262;28;20166;-77
2020/12/02 03:25:34;;;;;;;24.42;13.20;;;4.40;99.90;;;;;;5033016;28;20228;-77
2020/12/02 03:28:00;;;;;;;24.87;14.67;;;4.40;99.90;;;;;;5033295;28;20638;-77
2020/12/02 03:30:27;;;;;;;22.98;13.55;;;4.50;99.90;;;;;;5033207;28;20446;-77
2020/12/02 03:32:53;;;;;;;24.50;14.60;;;4.40;99.90;;;;;;5033192;28;20186;-77
2020/12/02 03:35:19;;;;;;;22.57;13.20;;;4.40;99.90;;;;;;5032759;28;20267;-77
2020/12/02 03:37:44;;;;;;;21.50;13.83;;;4.40;99.90;;;;;;5032974;28;20189;-77
2020/12/02 03:40:11;;;;;;;19.63;13.50;;;4.40;99.90;;;;;;5033093;28;20654;-77
2020/12/02 03:42:37;;;;;;;18.40;12.90;;;4.30;99.90;;;;;;5033201;28;20185;-77
2020/12/02 03:45:09;;;;;;;19.43;12.27;;;4.40;99.90;;;;;;5032971;28;20173;-77
2020/12/02 03:47:36;;;;;;;19.60;14.30;;;4.30;99.90;;;;;;5033093;28;20574;-77
2020/12/02 03:50:04;;;;;;;24.25;14.38;;;4.30;99.90;;;;;;5032925;28;20209;-77
2020/12/02 03:52:29;;;;;;;22.23;14.27;;;4.20;99.90;;;;;;5033018;28;20186;-76
2020/12/02 03:54:55;;;;;;;17.67;13.20;;;4.30;99.90;;;;;;5032722;28;20181;-77
2020/12/02 03:57:20;;;;;;;20.27;13.27;;;4.30;99.90;;;;;;5031700;28;20331;-76
2020/12/02 03:59:46;;;;;;;23.17;14.33;;;4.30;99.90;;;;;;5032843;28;20214;-76
2020/12/02 04:02:12;;;;;;;19.80;13.60;;;4.20;99.90;;;;;;5033038;28;20175;-77
2020/12/02 04:04:37;;;;;;;18.07;13.30;;;4.20;99.90;;;;;;5032633;28;20257;-76
2020/12/02 04:07:03;;;;;;;15.60;11.47;;;4.30;99.90;;;;;;5032924;28;20201;-77
2020/12/02 04:09:29;;;;;;;18.20;12.20;;;4.30;99.90;;;;;;5032744;28;20281;-77
2020/12/02 04:11:54;;;;;;;21.13;14.33;;;4.30;99.90;;;;;;5033074;28;20417;-76
2020/12/02 04:14:20;;;;;;;19.47;13.47;;;4.30;99.90;;;;;;5032883;28;20257;-77
2020/12/02 04:16:46;;;;;;;18.80;12.83;;;4.20;99.90;;;;;;5032656;28;20635;-77
2020/12/02 04:19:11;;;;;;;25.17;14.00;;;4.20;99.90;;;;;;5031414;28;20586;-76
2020/12/02 04:21:37;;;;;;;25.03;13.90;;;4.30;99.90;;;;;;5032575;28;20649;-77
2020/12/02 04:24:03;;;;;;;21.20;13.60;;;4.30;99.90;;;;;;5032824;28;20253;-77
2020/12/02 04:26:28;;;;;;;17.90;12.47;;;4.30;99.90;;;;;;5032430;28;20694;-76
2020/12/02 04:28:54;;;;;;;22.40;14.10;;;4.30;99.90;;;;;;5032770;28;20823;-76
2020/12/02 04:31:20;;;;;;;17.83;12.70;;;4.30;99.90;;;;;;5032686;28;20535;-77
2020/12/02 04:33:46;;;;;;;18.20;12.83;;;4.30;99.90;;;;;;5032522;28;20182;-76
2020/12/02 04:36:12;;;;;;;21.40;13.80;;;4.30;99.90;;;;;;5032378;28;20178;-76
2020/12/02 04:38:38;;;;;;;22.88;14.13;;;4.30;99.90;;;;;;5031315;28;20979;-77
2020/12/02 04:41:10;;;;;;;25.30;14.07;;;4.30;99.90;;;;;;5032665;28;20174;-77
2020/12/02 04:43:38;;;;;;;19.65;12.93;;;4.20;99.90;;;;;;5032642;28;20174;-76
2020/12/02 04:46:19;;;;;;;23.77;14.25;;;4.30;99.90;;;;;;5030985;28;20257;-76
2020/12/02 04:48:49;;;;;;;26.35;14.23;;;4.20;99.90;;;;;;5032586;28;20178;-76
2020/12/02 04:51:28;;;;;;;28.70;15.27;;;4.30;99.90;;;;;;5032772;28;20192;-77
2020/12/02 04:53:58;;;;;;;28.15;14.85;;;4.30;99.90;;;;;;5032310;28;20198;-77
2020/12/02 04:56:25;;;;;;;24.10;15.23;;;4.30;99.90;;;;;;5032206;28;20177;-76
2020/12/02 04:58:53;;;;;;;23.85;13.35;;;4.30;99.90;;;;;;5032341;28;20208;-77
2020/12/02 05:01:32;;;;;;;27.75;15.00;;;4.30;99.90;;;;;;5032431;28;20623;-76
2020/12/02 05:04:03;;;;;;;24.05;13.70;;;4.30;99.90;;;;;;5036062;28;20202;-76
2020/12/02 05:06:48;;;;;;;24.15;15.52;;;4.30;99.90;;;;;;5035782;28;20565;-77
2020/12/02 05:09:21;;;;;;;26.05;14.40;;;4.30;99.90;;;;;;5035887;28;20212;-76
2020/12/02 05:12:20;;;;;;;24.20;14.20;;;4.20;99.90;;;;;;5035790;28;20189;-75
2020/12/02 05:14:47;;;;;;;20.58;12.88;;;4.20;99.90;;;;;;5034636;28;20263;-77
2020/12/02 05:17:28;;;;;;;21.63;15.13;;;4.20;99.90;;;;;;5035801;28;20174;-76
2020/12/02 05:20:14;;;;;;;18.33;13.70;;;4.20;99.90;;;;;;5035412;28;20233;-77
2020/12/02 05:22:46;;;;;;;22.63;13.50;;;4.30;99.90;;;;;;5035511;28;20170;-76
2020/12/02 05:25:46;;;;;;;24.00;12.57;;;4.30;99.90;;;;;;5035428;28;20170;-78
2020/12/02 05:28:24;;;;;;;21.90;13.48;;;4.20;99.90;;;;;;5035018;28;20190;-78
2020/12/02 05:31:02;;;;;;;27.05;16.10;;;4.20;99.90;;;;;;5035534;28;20190;-77
2020/12/02 05:33:30;;;;;;;23.00;14.50;;;4.20;99.90;;;;;;5034196;28;20268;-77
2020/12/02 05:36:04;;;;;;;24.55;14.80;;;4.30;99.90;;;;;;5035031;28;20170;-77
2020/12/02 05:38:46;;;;;;;29.60;15.18;;;4.20;99.90;;;;;;5035078;28;20209;-75
2020/12/02 05:41:15;;;;;;;28.77;14.07;;;4.20;99.90;;;;;;5035416;28;20205;-77
2020/12/02 05:43:52;;;;;;;25.83;16.15;;;4.20;99.90;;;;;;5035310;28;20171;-77
2020/12/02 05:46:41;;;;;;;22.58;14.70;;;4.30;99.90;;;;;;5034645;28;20177;-77
2020/12/02 05:49:13;;;;;;;21.67;14.88;;;4.20;99.90;;;;;;5034299;28;20756;-76
2020/12/02 05:51:41;;;;;;;23.40;14.40;;;4.20;99.90;;;;;;5035130;28;20186;-77
2020/12/02 05:54:15;;;;;;;24.20;14.00;;;4.20;99.90;;;;;;5035108;28;20550;-77
2020/12/02 05:56:44;;;;;;;25.70;15.35;;;4.20;99.90;;;;;;5034867;28;20510;-78
2020/12/02 05:59:09;;;;;;;29.02;14.15;;;4.30;99.90;;;;;;5034815;28;20217;-78
2020/12/02 06:01:35;;;;;;;22.67;14.70;;;4.20;99.90;;;;;;5035036;28;20186;-77
2020/12/02 06:04:02;;;;;;;26.33;16.17;;;4.20;99.90;;;;;;5034909;28;20193;-76
2020/12/02 06:06:31;;;;;;;26.85;16.15;;;4.20;99.90;;;;;;5034319;28;20405;-77
2020/12/02 06:08:57;;;;;;;22.23;15.18;;;4.30;99.90;;;;;;5034699;28;20891;-79
2020/12/02 06:11:27;;;;;;;23.42;14.25;;;4.20;99.90;;;;;;5034752;28;20177;-76
2020/12/02 06:13:54;;;;;;;24.05;14.43;;;4.20;99.90;;;;;;5034625;28;20514;-77
2020/12/02 06:16:22;;;;;;;18.58;12.90;;;4.30;99.90;;;;;;5034227;28;20178;-77
2020/12/02 06:18:48;;;;;;;19.40;12.93;;;4.20;99.90;;;;;;5034410;28;20206;-76
2020/12/02 06:21:40;;;;;;;20.57;13.43;;;4.20;99.90;;;;;;5034629;28;20215;-78
2020/12/02 06:24:07;;;;;;;19.38;13.50;;;4.30;99.90;;;;;;5034505;28;20193;-76
2020/12/02 06:26:39;;;;;;;19.52;12.80;;;4.20;99.90;;;;;;5034005;28;20178;-76
2020/12/02 06:29:14;;;;;;;20.80;13.65;;;4.20;99.90;;;;;;5032999;28;20204;-77
2020/12/02 06:31:40;;;;;;;21.67;14.00;;;4.20;99.90;;;;;;5033052;28;20221;-77
2020/12/02 06:34:22;;;;;;;18.43;12.80;;;4.20;99.90;;;;;;5034250;28;20205;-77
2020/12/02 06:37:32;;;;;;;16.48;13.02;;;4.20;99.90;;;;;;5032558;28;20182;-78
2020/12/02 06:39:59;;;;;;;22.83;13.63;;;4.20;99.90;;;;;;5032943;28;20230;-77
2020/12/02 06:42:33;;;;;;;18.83;13.15;;;4.20;99.90;;;;;;5034284;28;20205;-78
2020/12/02 06:45:16;;;;;;;19.85;12.93;;;4.20;99.90;;;;;;5033939;28;20177;-76
2020/12/02 06:47:51;;;;;;;19.23;12.32;;;4.20;99.90;;;;;;5034135;28;20591;-77
2020/12/02 06:50:22;;;;;;;22.02;15.68;;;4.20;99.90;;;;;;5034036;28;20691;-77
2020/12/02 06:52:48;;;;;;;21.67;15.23;;;4.30;99.90;;;;;;5033932;28;20642;-77
2020/12/02 06:55:23;;;;;;;20.90;14.00;;;4.20;99.90;;;;;;5033586;28;20201;-77
2020/12/02 06:57:59;;;;;;;22.67;14.02;;;4.20;99.90;;;;;;5033647;28;20176;-78
2020/12/02 08:21:56;;;;;;;16.13;5.00;;;14.30;99.90;;;;;;5111515;27;21123;-74
2020/12/02 08:24:30;;;;;;;89.47;18.60;;;13.80;99.90;;;;;;5111220;28;20914;-73
2020/12/02 08:26:56;;;;;;;64.80;13.30;;;13.70;99.90;;;;;;5111285;28;20745;-70
2020/12/02 08:49:02;;;;;;;12.80;10.48;;;5.40;99.90;;;;;;5070936;28;20619;-78
2020/12/02 08:51:28;;;;;;;13.07;9.55;;;5.20;99.90;;;;;;5070448;28;20399;-79
2020/12/02 08:53:54;;;;;;;12.30;9.50;;;5.10;99.90;;;;;;5070797;28;20163;-79
2020/12/02 08:56:40;;;;;;;11.80;9.45;;;5.10;99.90;;;;;;5070409;28;20187;-76
2020/12/02 08:59:09;;;;;;;12.35;8.98;;;5.10;99.90;;;;;;5070336;28;20219;-78
2020/12/02 09:01:35;;;;;;;11.95;8.75;;;5.00;99.90;;;;;;5070517;28;20239;-79
2020/12/02 09:04:01;;;;;;;11.05;8.93;;;5.10;99.90;;;;;;5070396;28;20177;-79
2020/12/02 09:06:26;;;;;;;12.43;10.03;;;5.10;99.90;;;;;;5070306;28;20175;-76
2020/12/02 09:08:53;;;;;;;14.17;10.87;;;5.00;99.90;;;;;;5070358;28;20691;-77
2020/12/02 09:11:34;;;;;;;13.80;10.50;;;5.00;99.90;;;;;;5069039;28;20175;-79
2020/12/02 09:14:01;;;;;;;16.10;10.45;;;5.10;99.90;;;;;;5070433;28;20170;-79
2020/12/02 09:16:33;;;;;;;11.52;9.82;;;5.10;99.90;;;;;;5070089;28;20176;-78
2020/12/02 09:19:00;;;;;;;16.90;10.93;;;5.10;99.90;;;;;;5070246;28;20192;-79
2020/12/02 09:21:27;;;;;;;15.32;8.88;;;5.00;99.90;;;;;;5070160;28;20174;-79
2020/12/02 09:23:54;;;;;;;13.75;10.70;;;4.90;99.90;;;;;;5069883;28;20164;-79
2020/12/02 09:26:22;;;;;;;12.75;9.48;;;5.00;99.90;;;;;;5069701;28;20223;-80
2020/12/02 09:28:50;;;;;;;12.43;9.27;;;5.00;99.90;;;;;;5069850;28;20657;-80
2020/12/02 09:31:18;;;;;;;11.35;9.05;;;5.00;99.90;;;;;;5068573;28;20181;-78
2020/12/02 09:33:44;;;;;;;17.20;11.23;;;4.90;99.90;;;;;;5069672;28;20326;-79
2020/12/02 09:36:10;;;;;;;14.05;9.90;;;4.90;99.90;;;;;;5069483;28;20173;-79
2020/12/02 09:38:36;;;;;;;10.37;9.27;;;4.90;99.90;;;;;;5069654;28;20216;-79
2020/12/02 09:41:23;;;;;;;14.33;9.67;;;4.80;99.90;;;;;;5069751;28;20248;-79
2020/12/02 09:44:18;;;;;;;11.90;9.50;;;4.90;99.90;;;;;;5069542;28;20149;-79
2020/12/02 09:47:15;;;;;;;12.40;9.68;;;5.00;99.90;;;;;;5067938;28;20212;-79
2020/12/02 09:49:44;;;;;;;16.92;10.68;;;5.10;99.90;;;;;;5068845;28;20261;-79
2020/12/02 09:52:09;;;;;;;14.35;11.27;;;5.20;99.90;;;;;;5067992;28;20173;-78
2020/12/02 09:54:40;;;;;;;11.20;10.10;;;5.20;99.90;;;;;;5069158;28;20173;-78
2020/12/02 09:57:14;;;;;;;15.25;10.68;;;5.40;99.90;;;;;;5055267;28;20567;-78
2020/12/02 09:59:40;;;;;;;10.55;8.40;;;5.40;99.90;;;;;;5034874;28;20559;-78
2020/12/02 10:02:36;;;;;;;8.30;7.40;;;5.50;99.90;;;;;;5030751;28;20170;-79
2020/12/02 10:05:43;;;;;;;10.18;9.00;;;5.50;99.90;;;;;;5030788;28;20176;-78
2020/12/02 10:08:30;;;;;;;11.20;9.75;;;5.60;99.90;;;;;;5031178;28;20284;-78
2020/12/02 10:11:02;;;;;;;9.57;8.18;;;5.50;99.90;;;;;;5030185;28;20178;-78
2020/12/02 10:13:45;;;;;;;9.40;8.40;;;5.50;99.90;;;;;;5031346;28;20535;-78
2020/12/02 10:16:25;;;;;;;10.43;8.20;;;5.50;99.90;;;;;;5030703;28;20189;-78
2020/12/02 10:19:20;;;;;;;9.75;8.07;;;5.70;99.90;;;;;;5030319;28;20254;-78
2020/12/02 10:22:23;;;;;;;12.85;7.53;;;5.80;99.90;;;;;;5028341;28;20194;-80
2020/12/02 10:24:56;;;;;;;7.65;6.85;;;6.20;99.90;;;;;;5029858;28;20180;-78
2020/12/02 10:27:52;;;;;;;8.02;6.60;;;6.20;99.90;;;;;;5030289;28;20268;-77
2020/12/02 10:30:23;;;;;;;7.82;7.03;;;6.20;99.90;;;;;;5030225;28;20226;-79
2020/12/02 10:33:07;;;;;;;9.45;8.18;;;6.00;99.90;;;;;;5029769;28;20185;-77
2020/12/02 10:35:36;;;;;;;10.30;7.85;;;6.10;99.90;;;;;;5030617;28;20824;-78
2020/12/02 10:38:11;;;;;;;9.52;8.63;;;6.10;99.90;;;;;;5030493;28;20248;-78
2020/12/02 10:40:48;;;;;;;7.88;7.07;;;6.20;99.90;;;;;;5029454;28;20225;-79
2020/12/02 10:43:26;;;;;;;8.73;7.78;;;6.50;99.90;;;;;;5030682;28;20261;-78
2020/12/02 10:45:56;;;;;;;8.60;7.50;;;6.60;99.90;;;;;;5030538;28;20178;-78
2020/12/02 10:49:01;;;;;;;7.57;6.80;;;6.40;99.90;;;;;;5029610;28;20860;-78
2020/12/02 10:51:36;;;;;;;8.85;7.90;;;6.10;99.90;;;;;;5030163;28;20540;-77
2020/12/02 10:54:11;;;;;;;8.10;7.03;;;6.20;99.90;;;;;;5030593;28;20180;-78
2020/12/02 10:56:37;;;;;;;9.30;8.13;;;6.10;99.90;;;;;;5028790;28;20181;-78
2020/12/02 10:59:03;;;;;;;8.90;7.95;;;6.20;99.90;;;;;;5039706;28;20201;-77
2020/12/02 11:01:28;;;;;;;8.03;7.20;;;6.20;99.90;;;;;;5049808;28;20189;-78
2020/12/02 11:03:58;;;;;;;9.07;7.77;;;6.10;99.90;;;;;;5049593;28;20189;-79
2020/12/02 11:06:33;;;;;;;10.25;8.10;;;6.20;99.90;;;;;;5049840;28;20174;-78
2020/12/02 11:09:45;;;;;;;10.50;8.43;;;6.30;99.90;;;;;;5049659;28;20204;-77
2020/12/02 11:12:25;;;;;;;9.30;8.40;;;6.40;99.90;;;;;;5046697;28;20184;-78
2020/12/02 11:15:08;;;;;;;10.80;9.18;;;6.50;99.90;;;;;;5049921;28;20529;-78
2020/12/02 11:17:45;;;;;;;7.70;6.90;;;6.40;99.90;;;;;;5049021;28;20280;-77
2020/12/02 11:20:19;;;;;;;16.60;8.05;;;6.20;99.90;;;;;;5049320;28;20188;-78
2020/12/02 11:23:00;;;;;;;8.98;8.07;;;6.30;99.90;;;;;;5049205;28;20283;-76
2020/12/02 11:25:54;;;;;;;10.52;8.73;;;6.30;99.90;;;;;;5048577;28;20644;-77
2020/12/02 11:28:20;;;;;;;9.52;8.55;;;6.20;99.90;;;;;;5047963;28;20208;-78
2020/12/02 11:30:46;;;;;;;10.07;9.07;;;6.30;99.90;;;;;;5049384;28;20272;-78
2020/12/02 11:33:44;;;;;;;10.17;8.23;;;6.20;99.90;;;;;;5048686;28;20176;-78
2020/12/02 11:36:18;;;;;;;9.50;7.93;;;6.10;99.90;;;;;;5049166;28;20431;-78
2020/12/02 11:39:00;;;;;;;10.55;8.30;;;6.10;99.90;;;;;;5048820;28;20204;-78
2020/12/02 11:41:39;;;;;;;9.60;8.60;;;6.10;99.90;;;;;;5048151;28;20179;-76
2020/12/02 11:44:35;;;;;;;8.30;6.88;;;6.00;99.90;;;;;;5049052;28;20656;-77
2020/12/02 11:47:40;;;;;;;9.43;7.10;;;5.90;99.90;;;;;;5046548;28;20298;-78
2020/12/02 11:50:21;;;;;;;9.32;7.00;;;5.90;99.90;;;;;;5048222;28;20295;-77
2020/12/02 11:53:22;;;;;;;9.43;7.18;;;6.00;99.90;;;;;;5048805;28;20183;-78
2020/12/02 11:55:47;;;;;;;8.90;8.00;;;6.10;99.90;;;;;;5047190;28;20198;-76
2020/12/02 11:58:16;;;;;;;8.83;7.87;;;6.00;99.90;;;;;;5046877;28;20197;-77
2020/12/02 12:00:41;;;;;;;9.75;7.85;;;6.00;99.90;;;;;;5041824;28;21075;-77
2020/12/02 12:03:52;;;;;;;10.30;7.93;;;6.00;99.90;;;;;;5047948;28;20180;-78
2020/12/02 12:06:22;;;;;;;8.90;6.95;;;6.00;99.90;;;;;;5047381;28;20200;-77
2020/12/02 12:09:03;;;;;;;9.50;7.50;;;6.00;99.90;;;;;;5047910;28;20239;-76
2020/12/02 12:11:37;;;;;;;9.32;7.88;;;6.00;99.90;;;;;;5048297;28;20181;-76
2020/12/02 12:14:19;;;;;;;8.40;7.18;;;6.00;99.90;;;;;;5048451;28;20242;-78
2020/12/02 12:17:11;;;;;;;9.10;7.50;;;5.90;99.90;;;;;;5048129;28;20185;-76
2020/12/02 12:20:05;;;;;;;8.65;7.78;;;5.90;99.90;;;;;;5048227;28;20187;-79
2020/12/02 12:22:42;;;;;;;8.68;7.38;;;5.80;99.90;;;;;;5048027;28;20173;-76
2020/12/02 12:25:13;;;;;;;8.80;7.10;;;5.80;99.90;;;;;;5047676;28;20208;-78
2020/12/02 12:27:42;;;;;;;10.38;8.27;;;5.80;99.90;;;;;;5049021;28;20235;-78
2020/12/02 12:30:09;;;;;;;9.23;8.30;;;5.70;99.90;;;;;;5047705;28;20197;-77
2020/12/02 12:32:55;;;;;;;8.50;7.63;;;5.80;99.90;;;;;;5047217;28;20704;-78
2020/12/02 12:35:23;;;;;;;10.40;8.63;;;5.70;99.90;;;;;;5048457;28;20188;-76
2020/12/02 12:38:16;;;;;;;9.95;8.00;;;5.80;99.90;;;;;;5048091;28;20252;-77
2020/12/02 12:41:26;;;;;;;8.57;7.18;;;5.70;99.90;;;;;;5047382;28;20596;-79
2020/12/02 12:44:10;;;;;;;8.85;7.90;;;5.80;99.90;;;;;;5048047;28;20192;-78
2020/12/02 12:46:42;;;;;;;8.27;7.15;;;5.80;99.90;;;;;;5037125;28;20187;-77
2020/12/02 12:49:12;;;;;;;11.02;8.15;;;5.80;99.90;;;;;;5027947;28;20588;-77
2020/12/02 12:51:38;;;;;;;8.43;7.63;;;5.80;99.90;;;;;;5027172;28;20662;-77
2020/12/02 12:54:12;;;;;;;8.38;7.38;;;5.80;99.90;;;;;;5028336;28;20176;-79
2020/12/02 12:56:40;;;;;;;8.00;7.20;;;5.80;99.90;;;;;;5046206;28;20513;-76
2020/12/02 12:59:08;;;;;;;10.18;8.90;;;5.80;99.90;;;;;;5046223;28;20663;-80
2020/12/02 13:01:34;;;;;;;10.32;7.78;;;5.80;99.90;;;;;;5041903;28;20337;-78
2020/12/02 13:04:02;;;;;;;9.15;7.60;;;5.80;99.90;;;;;;5047044;28;20297;-77
2020/12/02 13:07:02;;;;;;;8.20;7.28;;;5.80;99.90;;;;;;5045538;28;20176;-78
2020/12/02 13:09:58;;;;;;;8.85;7.95;;;5.80;99.90;;;;;;5046101;28;20196;-77
2020/12/02 13:12:39;;;;;;;9.60;8.15;;;5.80;99.90;;;;;;5047688;28;21094;-79
2020/12/02 13:15:28;;;;;;;10.63;8.13;;;5.80;99.90;;;;;;5047316;28;20271;-77
2020/12/02 13:18:00;;;;;;;9.48;7.97;;;5.80;99.90;;;;;;5047589;28;20208;-77
2020/12/02 13:20:47;;;;;;;10.00;8.05;;;5.70;99.90;;;;;;5047361;28;20198;-76
2020/12/02 13:23:17;;;;;;;9.50;7.88;;;5.70;99.90;;;;;;5046882;28;20185;-76
2020/12/02 13:26:19;;;;;;;10.45;8.00;;;5.70;99.90;;;;;;5047101;28;20703;-78
2020/12/02 13:28:51;;;;;;;9.52;8.10;;;5.70;99.90;;;;;;5046478;28;20678;-76
2020/12/02 13:31:31;;;;;;;10.90;8.45;;;5.70;99.90;;;;;;5047103;28;20642;-77
2020/12/02 13:33:57;;;;;;;9.30;7.40;;;5.70;99.90;;;;;;5047728;28;20187;-76
2020/12/02 13:36:27;;;;;;;10.35;8.05;;;5.70;99.90;;;;;;5051337;28;20180;-76
2020/12/02 13:38:54;;;;;;;9.98;8.27;;;5.70;99.90;;;;;;5050676;28;20205;-79
2020/12/02 13:41:51;;;;;;;9.02;8.07;;;5.70;99.90;;;;;;5050672;28;20174;-77
2020/12/02 13:44:20;;;;;;;8.40;7.50;;;5.70;99.90;;;;;;5049850;28;20221;-76
2020/12/02 13:46:52;;;;;;;8.25;7.45;;;5.70;99.90;;;;;;5050325;28;20180;-79
2020/12/02 13:49:18;;;;;;;10.45;8.10;;;5.70;99.90;;;;;;5051138;28;20247;-77
2020/12/02 13:51:58;;;;;;;11.75;10.00;;;5.70;99.90;;;;;;5051232;28;20851;-79
2020/12/02 13:54:49;;;;;;;11.80;9.30;;;5.70;99.90;;;;;;5050083;28;20183;-76
2020/12/02 13:57:18;;;;;;;10.90;8.68;;;5.70;99.90;;;;;;5050800;28;20201;-77
2020/12/02 14:00:01;;;;;;;11.82;10.05;;;5.70;99.90;;;;;;5049785;28;20309;-79
2020/12/02 14:02:32;;;;;;;17.25;9.93;;;5.70;99.90;;;;;;5044535;28;20192;-79
2020/12/02 14:05:22;;;;;;;14.25;10.88;;;5.70;99.90;;;;;;5050524;28;20524;-78
2020/12/02 14:07:50;;;;;;;11.93;9.38;;;5.70;99.90;;;;;;5050219;28;20187;-77
2020/12/02 14:10:16;;;;;;;14.80;10.60;;;5.70;99.90;;;;;;5050349;28;20204;-78
2020/12/02 14:12:42;;;;;;;11.80;9.87;;;5.70;99.90;;;;;;5050581;28;20191;-76
2020/12/02 14:15:21;;;;;;;13.40;10.02;;;5.70;99.90;;;;;;5049738;28;20435;-79
2020/12/02 14:17:48;;;;;;;12.98;9.07;;;5.60;99.90;;;;;;5050159;28;20219;-79
2020/12/02 14:20:13;;;;;;;10.52;8.23;;;5.60;99.90;;;;;;5050334;28;20276;-79
2020/12/02 14:22:41;;;;;;;12.67;9.03;;;5.60;99.90;;;;;;5049645;28;20269;-78
2020/12/02 14:25:11;;;;;;;11.35;9.05;;;5.60;99.90;;;;;;5049912;28;20249;-76
2020/12/02 14:27:56;;;;;;;11.10;8.82;;;5.50;99.90;;;;;;5050997;28;20204;-79
2020/12/02 14:30:28;;;;;;;13.48;9.35;;;5.50;99.90;;;;;;5048949;28;20235;-77
2020/12/02 14:32:55;;;;;;;14.13;9.27;;;5.50;99.90;;;;;;5049329;28;20236;-76
2020/12/02 14:35:25;;;;;;;12.60;9.88;;;5.50;99.90;;;;;;5049845;28;20180;-78
2020/12/02 14:37:55;;;;;;;12.02;9.30;;;5.50;99.90;;;;;;5049151;28;20213;-76
2020/12/02 14:40:22;;;;;;;13.38;9.70;;;5.50;99.90;;;;;;5041913;28;20278;-77
2020/12/02 14:42:48;;;;;;;12.35;10.07;;;5.50;99.90;;;;;;5036953;28;20257;-78
2020/12/02 14:45:14;;;;;;;11.95;8.80;;;5.50;99.90;;;;;;5047300;28;20661;-78
2020/12/02 14:47:40;;;;;;;13.63;10.03;;;5.50;99.90;;;;;;5050067;28;20196;-76
2020/12/02 14:50:06;;;;;;;13.73;9.93;;;5.50;99.90;;;;;;5049602;28;20204;-77
2020/12/02 14:52:31;;;;;;;13.37;10.13;;;5.40;99.90;;;;;;5048515;28;20185;-80
2020/12/02 14:54:57;;;;;;;13.80;10.40;;;5.40;99.90;;;;;;5049893;28;20186;-79
2020/12/02 14:57:33;;;;;;;12.80;10.17;;;5.40;99.90;;;;;;5049656;28;20197;-79